createdAt,value
2023-01-08T00:02:14.254Z,12.18
2023-01-08T00:04:40.805Z,12.19
2023-01-08T00:07:07.245Z,12.22
2023-01-08T00:09:33.743Z,12.22
2023-01-08T00:12:00.329Z,12.23
2023-01-08T00:14:26.845Z,12.22
2023-01-08T00:16:53.657Z,12.19
2023-01-08T00:19:20.217Z,12.17
2023-01-08T00:21:46.757Z,12.20
2023-01-08T00:24:13.339Z,12.23
2023-01-08T00:26:39.951Z,12.26
2023-01-08T00:29:06.991Z,12.24
2023-01-08T00:31:33.565Z,12.24
2023-01-08T00:34:00.393Z,12.20
2023-01-08T00:36:27.360Z,12.03
2023-01-08T00:38:57.452Z,11.98
2023-01-08T00:41:24.709Z,12.00
2023-01-08T00:43:51.396Z,12.03
2023-01-08T00:46:17.984Z,11.97
2023-01-08T00:48:45.024Z,11.77
2023-01-08T00:51:12.093Z,11.74
2023-01-08T00:53:38.832Z,11.83
2023-01-08T00:56:07.581Z,11.89
2023-01-08T00:58:35.100Z,11.96
2023-01-08T01:01:02.508Z,11.98
2023-01-08T01:03:29.152Z,12.08
2023-01-08T01:06:02.454Z,12.06
2023-01-08T01:08:29.165Z,11.98
2023-01-08T01:10:59.065Z,11.88
2023-01-08T01:13:25.890Z,11.92
2023-01-08T01:15:59.421Z,12.02
2023-01-08T01:18:26.845Z,12.05
2023-01-08T01:20:53.535Z,12.12
2023-01-08T01:23:20.388Z,12.13
2023-01-08T01:25:47.036Z,12.14
2023-01-08T01:28:13.951Z,12.07
2023-01-08T01:30:40.745Z,11.95
2023-01-08T01:33:07.331Z,11.77
2023-01-08T01:35:34.397Z,11.77
2023-01-08T01:38:00.944Z,11.80
2023-01-08T01:40:27.675Z,11.78
2023-01-08T01:42:54.446Z,11.58
2023-01-08T01:45:24.017Z,11.52
2023-01-08T01:47:54.211Z,11.47
2023-01-08T01:50:29.809Z,11.44
2023-01-08T01:53:03.072Z,11.47
2023-01-08T01:55:30.732Z,11.48
2023-01-08T01:58:21.428Z,11.42
2023-01-08T02:00:48.802Z,11.32
2023-01-08T02:03:16.599Z,11.33
2023-01-08T02:05:46.165Z,11.25
2023-01-08T02:08:13.891Z,11.22
2023-01-08T02:10:40.469Z,11.20
2023-01-08T02:13:17.656Z,11.24
2023-01-08T02:15:44.230Z,11.32
2023-01-08T02:18:15.043Z,11.35
2023-01-08T02:20:46.755Z,11.31
2023-01-08T02:23:32.229Z,11.42
2023-01-08T02:26:04.638Z,11.51
2023-01-08T02:28:33.782Z,11.57
2023-01-08T02:31:00.469Z,11.60
2023-01-08T02:33:28.135Z,11.44
2023-01-08T02:36:11.068Z,11.38
2023-01-08T02:38:42.553Z,11.44
2023-01-08T02:41:11.171Z,11.50
2023-01-08T02:43:50.275Z,11.52
2023-01-08T02:46:23.434Z,11.64
2023-01-08T02:48:53.021Z,11.61
2023-01-08T02:51:24.272Z,11.58
2023-01-08T02:53:54.860Z,11.55
2023-01-08T02:56:24.596Z,11.52
2023-01-08T02:58:53.212Z,11.57
2023-01-08T03:01:22.278Z,11.63
2023-01-08T03:03:55.041Z,11.62
2023-01-08T03:06:21.657Z,11.60
2023-01-08T03:08:50.536Z,11.64
2023-01-08T03:11:21.841Z,11.63
2023-01-08T03:14:04.633Z,11.48
2023-01-08T03:16:35.574Z,11.34
2023-01-08T03:19:08.026Z,11.30
2023-01-08T03:21:35.999Z,11.38
2023-01-08T03:24:17.079Z,11.48
2023-01-08T03:26:47.978Z,11.54
2023-01-08T03:29:17.843Z,11.55
2023-01-08T03:31:48.764Z,11.58
2023-01-08T03:34:16.373Z,11.58
2023-01-08T03:36:46.951Z,11.61
2023-01-08T03:42:10.567Z,11.58
2023-01-08T03:44:37.295Z,11.64
2023-01-08T03:47:11.413Z,11.62
2023-01-08T03:49:41.523Z,11.65
2023-01-08T03:52:08.571Z,11.61
2023-01-08T03:54:39.381Z,11.41
2023-01-08T03:57:06.143Z,11.33
2023-01-08T03:59:34.952Z,11.45
2023-01-08T04:02:01.523Z,11.37
2023-01-08T04:04:29.445Z,11.42
2023-01-08T04:07:02.760Z,11.43
2023-01-08T04:09:31.234Z,11.47
2023-01-08T04:11:57.876Z,11.48
2023-01-08T04:14:27.431Z,11.32
2023-01-08T04:16:55.318Z,11.20
2023-01-08T04:19:21.798Z,11.20
2023-01-08T04:21:52.206Z,11.14
2023-01-08T04:24:21.905Z,11.14
2023-01-08T04:26:50.781Z,11.06
2023-01-08T04:29:20.344Z,11.00
2023-01-08T04:31:46.847Z,10.97
2023-01-08T04:34:13.421Z,10.97
2023-01-08T04:36:40.629Z,10.94
2023-01-08T04:39:10.640Z,11.05
2023-01-08T04:41:37.217Z,10.96
2023-01-08T04:44:03.864Z,10.92
2023-01-08T04:46:32.840Z,10.86
2023-01-08T04:48:59.585Z,10.82
2023-01-08T04:51:26.504Z,10.81
2023-01-08T04:53:53.466Z,10.63
2023-01-08T04:56:20.422Z,10.61
2023-01-08T04:58:47.170Z,10.68
2023-01-08T05:01:16.195Z,10.51
2023-01-08T05:03:42.761Z,10.56
2023-01-08T05:06:09.466Z,10.58
2023-01-08T05:08:36.228Z,10.49
2023-01-08T05:11:03.206Z,10.46
2023-01-08T05:13:33.119Z,10.43
2023-01-08T05:16:00.737Z,10.46
2023-01-08T05:18:28.723Z,10.45
2023-01-08T05:20:59.226Z,10.41
2023-01-08T05:23:26.108Z,10.46
2023-01-08T05:25:53.979Z,10.45
2023-01-08T05:28:23.791Z,10.45
2023-01-08T05:30:51.033Z,10.54
2023-01-08T05:33:17.705Z,10.53
2023-01-08T05:35:46.710Z,10.48
2023-01-08T05:38:13.551Z,10.25
2023-01-08T05:40:40.117Z,10.18
2023-01-08T05:43:06.827Z,10.13
2023-01-08T05:45:33.726Z,10.26
2023-01-08T05:48:01.865Z,10.36
2023-01-08T05:50:28.480Z,10.44
2023-01-08T05:52:58.478Z,10.41
2023-01-08T05:55:25.308Z,10.31
2023-01-08T05:57:52.286Z,10.16
2023-01-08T06:00:18.799Z,10.16
2023-01-08T06:02:48.983Z,10.27
2023-01-08T06:05:16.004Z,10.34
2023-01-08T06:07:42.613Z,10.25
2023-01-08T06:10:12.487Z,10.18
2023-01-08T06:12:39.304Z,10.33
2023-01-08T06:15:06.234Z,10.28
2023-01-08T06:17:33.112Z,10.20
2023-01-08T06:19:59.622Z,10.21
2023-01-08T06:22:27.661Z,10.22
2023-01-08T06:24:55.342Z,10.18
2023-01-08T06:27:24.376Z,10.26
2023-01-08T06:29:50.938Z,10.23
2023-01-08T06:32:17.532Z,10.36
2023-01-08T06:34:44.240Z,10.39
2023-01-08T06:37:11.096Z,10.41
2023-01-08T06:39:37.776Z,10.40
2023-01-08T06:42:04.409Z,10.52
2023-01-08T06:44:31.172Z,10.49
2023-01-08T06:46:57.936Z,10.53
2023-01-08T06:49:24.621Z,10.62
2023-01-08T06:51:51.426Z,10.55
2023-01-08T06:54:18.047Z,10.56
2023-01-08T06:56:53.288Z,10.54
2023-01-08T06:59:21.196Z,10.54
2023-01-08T07:01:49.789Z,10.57
2023-01-08T07:04:17.075Z,10.65
2023-01-08T07:06:43.726Z,10.61
2023-01-08T07:09:14.708Z,10.61
2023-01-08T07:11:41.743Z,10.64
2023-01-08T07:14:08.782Z,10.57
2023-01-08T07:16:35.455Z,10.61
2023-01-08T07:19:01.967Z,10.62
2023-01-08T07:21:28.854Z,10.61
2023-01-08T07:23:55.841Z,10.60
2023-01-08T07:26:22.559Z,10.65
2023-01-08T07:28:49.373Z,10.64
2023-01-08T07:31:17.149Z,10.66
2023-01-08T07:33:43.847Z,10.70
2023-01-08T07:36:10.632Z,10.63
2023-01-08T07:38:37.378Z,10.63
2023-01-08T07:41:06.750Z,10.59
2023-01-08T07:43:35.667Z,10.63
2023-01-08T07:46:03.406Z,10.68
2023-01-08T07:48:30.012Z,10.49
2023-01-08T07:51:00.806Z,10.49
2023-01-08T07:53:27.755Z,10.55
2023-01-08T07:55:59.115Z,10.59
2023-01-08T07:58:25.701Z,10.57
2023-01-08T08:00:52.222Z,10.57
2023-01-08T08:03:19.603Z,10.48
2023-01-08T08:05:49.281Z,10.46
2023-01-08T08:08:20.484Z,10.39
2023-01-08T08:10:47.153Z,10.45
2023-01-08T08:13:16.102Z,10.55
2023-01-08T08:15:42.783Z,10.62
2023-01-08T08:18:18.895Z,10.69
2023-01-08T08:20:52.647Z,10.69
2023-01-08T08:23:19.517Z,10.59
2023-01-08T08:25:48.485Z,10.67
2023-01-08T08:28:21.765Z,10.67
2023-01-08T08:30:52.375Z,10.62
2023-01-08T08:33:19.096Z,10.51
2023-01-08T08:35:52.005Z,10.48
2023-01-08T08:38:19.237Z,10.45
2023-01-08T08:40:46.096Z,10.53
2023-01-08T08:43:26.209Z,10.50
2023-01-08T08:45:57.515Z,10.56
2023-01-08T08:48:29.662Z,10.67
2023-01-08T08:51:00.712Z,10.70
2023-01-08T08:53:32.918Z,10.71
2023-01-08T08:56:14.623Z,10.71
2023-01-08T08:58:45.256Z,10.70
2023-01-08T09:01:14.781Z,10.64
2023-01-08T09:03:45.648Z,10.61
2023-01-08T09:06:16.002Z,10.63
2023-01-08T09:08:42.852Z,10.67
2023-01-08T09:11:13.573Z,10.70
2023-01-08T09:13:41.087Z,10.73
2023-01-08T09:16:07.766Z,10.68
2023-01-08T09:18:36.777Z,10.75
2023-01-08T09:21:07.156Z,10.79
2023-01-08T09:23:34.450Z,10.83
2023-01-08T09:26:02.084Z,10.88
2023-01-08T09:28:29.032Z,10.90
2023-01-08T09:30:58.443Z,11.02
2023-01-08T09:33:25.201Z,11.11
2023-01-08T09:35:51.936Z,11.19
2023-01-08T09:38:21.296Z,11.22
2023-01-08T09:40:56.932Z,11.24
2023-01-08T09:43:27.698Z,11.35
2023-01-08T09:46:06.138Z,11.38
2023-01-08T09:48:41.331Z,11.47
2023-01-08T09:51:19.980Z,11.49
2023-01-08T09:53:50.341Z,11.45
2023-01-08T09:56:20.537Z,11.52
2023-01-08T09:58:56.868Z,11.52
2023-01-08T10:01:25.371Z,11.56
2023-01-08T10:04:19.853Z,11.54
2023-01-08T10:06:59.092Z,11.53
2023-01-08T10:09:36.588Z,11.51
2023-01-08T10:12:07.028Z,11.63
2023-01-08T10:14:47.949Z,11.74
2023-01-08T10:17:21.428Z,11.75
2023-01-08T10:22:34.516Z,11.63
2023-01-08T10:25:12.855Z,11.61
2023-01-08T10:27:51.735Z,11.66
2023-01-08T10:30:37.377Z,11.65
2023-01-08T10:33:11.610Z,11.72
2023-01-08T10:35:40.449Z,11.81
2023-01-08T10:38:10.033Z,11.80
2023-01-08T10:40:49.866Z,11.77
2023-01-08T10:43:35.078Z,11.81
2023-01-08T10:46:06.444Z,11.95
2023-01-08T10:49:06.767Z,11.97
2023-01-08T10:51:36.189Z,12.15
2023-01-08T10:54:15.440Z,12.31
2023-01-08T10:56:45.409Z,12.38
2023-01-08T10:59:22.135Z,12.39
2023-01-08T11:01:55.818Z,12.48
2023-01-08T11:04:24.033Z,12.58
2023-01-08T11:06:50.716Z,12.78
2023-01-08T11:09:22.067Z,13.06
2023-01-08T11:11:49.086Z,13.52
2023-01-08T11:14:21.434Z,13.89
2023-01-08T11:16:48.632Z,13.98
2023-01-08T11:19:29.677Z,13.89
2023-01-08T11:21:56.849Z,14.06
2023-01-08T11:24:30.279Z,14.20
2023-01-08T11:27:00.428Z,14.21
2023-01-08T11:29:32.079Z,14.24
2023-01-08T11:32:25.192Z,14.45
2023-01-08T11:35:03.963Z,14.82
2023-01-08T11:37:36.752Z,14.88
2023-01-08T11:40:16.335Z,14.61
2023-01-08T11:43:01.915Z,14.30
2023-01-08T11:45:42.576Z,14.16
2023-01-08T11:48:30.988Z,14.13
2023-01-08T11:50:57.483Z,14.17
2023-01-08T11:53:24.238Z,14.18
2023-01-08T11:56:15.910Z,13.96
2023-01-08T11:58:51.948Z,13.83
2023-01-08T12:01:30.761Z,13.71
2023-01-08T12:04:12.627Z,13.74
2023-01-08T12:06:57.339Z,13.66
2023-01-08T12:09:53.113Z,13.67
2023-01-08T12:12:35.317Z,13.59
2023-01-08T12:15:18.680Z,13.64
2023-01-08T12:17:45.779Z,13.66
2023-01-08T12:20:18.539Z,13.33
2023-01-08T12:22:57.136Z,13.17
2023-01-08T12:25:44.499Z,13.26
2023-01-08T12:28:21.272Z,13.37
2023-01-08T12:31:19.154Z,13.72
2023-01-08T12:33:57.536Z,13.92
2023-01-08T12:36:30.827Z,14.12
2023-01-08T12:39:11.883Z,14.09
2023-01-08T12:41:43.738Z,14.05
2023-01-08T12:44:12.180Z,14.10
2023-01-08T12:46:42.037Z,13.93
2023-01-08T12:49:11.356Z,13.82
2023-01-08T12:51:47.322Z,13.59
2023-01-08T12:54:20.108Z,13.52
2023-01-08T12:57:02.727Z,13.49
2023-01-08T12:59:35.466Z,13.22
2023-01-08T13:02:02.868Z,13.12
2023-01-08T13:04:38.978Z,13.04
2023-01-08T13:07:06.643Z,13.05
2023-01-08T13:09:42.413Z,13.03
2023-01-08T13:12:30.284Z,13.08
2023-01-08T13:15:00.837Z,12.97
2023-01-08T13:20:52.858Z,12.96
2023-01-08T13:23:42.797Z,12.91
2023-01-08T13:26:09.551Z,12.86
2023-01-08T13:31:43.231Z,12.77
2023-01-08T13:34:31.806Z,12.83
2023-01-08T13:37:26.973Z,12.81
2023-01-08T13:39:56.925Z,12.83
2023-01-08T13:42:40.347Z,12.96
2023-01-08T13:45:10.535Z,13.04
2023-01-08T13:47:43.022Z,13.07
2023-01-08T13:50:34.053Z,13.13
2023-01-08T13:53:08.862Z,13.08
2023-01-08T13:55:43.201Z,12.97
2023-01-08T13:58:24.591Z,12.87
2023-01-08T14:00:59.422Z,12.88
2023-01-08T14:03:35.676Z,12.94
2023-01-08T14:06:18.276Z,12.78
2023-01-08T14:09:00.217Z,12.64
2023-01-08T14:11:33.866Z,12.58
2023-01-08T14:14:19.936Z,12.58
2023-01-08T14:16:52.891Z,12.64
2023-01-08T14:19:29.132Z,12.73
2023-01-08T14:22:01.887Z,12.73
2023-01-08T14:24:28.560Z,12.75
2023-01-08T14:27:00.921Z,12.78
2023-01-08T14:29:32.292Z,12.75
2023-01-08T14:32:04.734Z,12.75
2023-01-08T14:34:34.708Z,12.73
2023-01-08T14:37:01.711Z,12.76
2023-01-08T14:39:48.636Z,12.88
2023-01-08T14:42:41.866Z,12.83
2023-01-08T14:45:30.221Z,12.67
2023-01-08T14:48:28.648Z,12.54
2023-01-08T14:51:06.735Z,12.51
2023-01-08T14:56:32.554Z,12.48
2023-01-08T14:58:59.963Z,12.38
2023-01-08T15:01:30.531Z,12.35
2023-01-08T15:04:09.717Z,12.35
2023-01-08T15:06:38.704Z,12.20
2023-01-08T15:09:21.085Z,12.13
2023-01-08T15:11:55.411Z,11.98
2023-01-08T15:14:28.074Z,11.72
2023-01-08T15:17:07.766Z,11.67
2023-01-08T15:19:41.256Z,11.67
2023-01-08T15:22:15.842Z,11.65
2023-01-08T15:24:46.916Z,11.62
2023-01-08T15:30:31.278Z,11.57
2023-01-08T15:33:12.448Z,11.55
2023-01-08T15:35:39.024Z,11.54
2023-01-08T15:38:18.249Z,11.47
2023-01-08T15:40:47.045Z,11.44
2023-01-08T15:43:16.715Z,11.39
2023-01-08T15:45:44.902Z,11.44
2023-01-08T15:48:14.486Z,11.49
2023-01-08T15:50:47.976Z,11.43
2023-01-08T15:53:19.346Z,11.29
2023-01-08T15:55:46.978Z,11.28
2023-01-08T15:58:14.145Z,11.35
2023-01-08T16:00:41.762Z,11.47
2023-01-08T16:03:12.088Z,11.49
2023-01-08T16:05:41.695Z,11.58
2023-01-08T16:08:08.646Z,11.55
2023-01-08T16:10:35.375Z,11.51
2023-01-08T16:13:02.069Z,11.51
2023-01-08T16:15:31.101Z,11.54
2023-01-08T16:17:58.926Z,11.68
2023-01-08T16:20:25.745Z,11.70
2023-01-08T16:22:52.378Z,11.68
2023-01-08T16:25:19.054Z,11.63
2023-01-08T16:27:45.620Z,11.64
2023-01-08T16:30:15.368Z,11.57
2023-01-08T16:32:42.087Z,11.57
2023-01-08T16:35:09.008Z,11.57
2023-01-08T16:37:35.656Z,11.64
2023-01-08T16:40:02.250Z,11.77
2023-01-08T16:42:28.932Z,11.77
2023-01-08T16:44:55.542Z,11.78
2023-01-08T16:47:22.106Z,11.76
2023-01-08T16:49:50.345Z,11.74
2023-01-08T16:52:17.692Z,11.74
2023-01-08T16:54:44.845Z,11.82
2023-01-08T16:57:11.487Z,11.93
2023-01-08T16:59:38.498Z,12.04
2023-01-08T17:02:09.843Z,12.04
2023-01-08T17:04:38.000Z,11.91
2023-01-08T17:07:05.056Z,11.94
2023-01-08T17:09:31.799Z,11.87
2023-01-08T17:11:58.408Z,11.86
2023-01-08T17:14:25.049Z,11.76
2023-01-08T17:16:51.709Z,11.69
2023-01-08T17:19:18.333Z,11.68
2023-01-08T17:21:46.073Z,11.66
2023-01-08T17:24:12.998Z,11.64
2023-01-08T17:26:39.562Z,11.61
2023-01-08T17:29:06.059Z,11.56
2023-01-08T17:31:39.824Z,11.48
2023-01-08T17:34:08.517Z,11.33
2023-01-08T17:36:36.129Z,11.23
2023-01-08T17:39:03.730Z,11.12
2023-01-08T17:41:49.034Z,11.00
2023-01-08T17:44:15.966Z,10.86
2023-01-08T17:46:44.679Z,10.83
2023-01-08T17:49:13.273Z,10.73
2023-01-08T17:51:41.007Z,10.73
2023-01-08T17:54:10.191Z,10.78
2023-01-08T17:56:36.920Z,10.79
2023-01-08T17:59:11.161Z,10.84
2023-01-08T18:01:37.761Z,10.95
2023-01-08T18:04:04.592Z,10.99
2023-01-08T18:06:31.451Z,10.99
2023-01-08T18:08:58.000Z,11.00
2023-01-08T18:11:25.453Z,11.05
2023-01-08T18:13:56.044Z,11.09
2023-01-08T18:16:22.694Z,11.11
2023-01-08T18:18:49.410Z,11.12
2023-01-08T18:21:16.019Z,11.11
2023-01-08T18:23:44.116Z,11.08
2023-01-08T18:26:12.425Z,11.06
2023-01-08T18:28:39.251Z,11.01
2023-01-08T18:31:06.722Z,11.01
2023-01-08T18:33:34.013Z,11.01
2023-01-08T18:36:03.168Z,11.03
2023-01-08T18:38:29.939Z,11.03
2023-01-08T18:40:57.954Z,11.01
2023-01-08T18:43:25.718Z,10.97
2023-01-08T18:45:52.834Z,10.98
2023-01-08T18:48:19.517Z,10.97
2023-01-08T18:50:46.669Z,10.95
2023-01-08T18:53:18.220Z,10.87
2023-01-08T18:55:47.869Z,10.88
2023-01-08T18:58:14.404Z,10.98
2023-01-08T19:00:41.304Z,10.97
2023-01-08T19:03:09.061Z,10.97
2023-01-08T19:05:42.721Z,10.96
2023-01-08T19:08:17.026Z,10.95
2023-01-08T19:10:46.715Z,10.94
2023-01-08T19:13:13.700Z,10.92
2023-01-08T19:15:40.363Z,10.86
2023-01-08T19:18:09.277Z,10.94
2023-01-08T19:20:35.914Z,11.01
2023-01-08T19:23:03.078Z,11.04
2023-01-08T19:25:32.451Z,11.12
2023-01-08T19:27:59.143Z,11.12
2023-01-08T19:30:25.717Z,11.17
2023-01-08T19:32:52.364Z,11.21
2023-01-08T19:35:18.903Z,11.10
2023-01-08T19:37:45.481Z,10.94
2023-01-08T19:40:12.741Z,10.92
2023-01-08T19:42:58.010Z,10.94
2023-01-08T19:45:24.725Z,10.92
2023-01-08T19:47:53.485Z,10.98
2023-01-08T19:50:20.664Z,11.04
2023-01-08T19:52:47.204Z,11.11
2023-01-08T19:55:13.706Z,11.19
2023-01-08T19:57:40.478Z,11.30
2023-01-08T20:00:07.401Z,11.36
2023-01-08T20:02:38.422Z,11.46
2023-01-08T20:05:05.391Z,11.47
2023-01-08T20:07:31.967Z,11.49
2023-01-08T20:09:58.482Z,11.47
2023-01-08T20:12:25.007Z,11.47
2023-01-08T20:14:51.470Z,11.42
2023-01-08T20:17:25.780Z,11.37
2023-01-08T20:19:55.905Z,11.35
2023-01-08T20:22:22.547Z,11.37
2023-01-08T20:24:53.174Z,11.38
2023-01-08T20:27:19.730Z,11.37
2023-01-08T20:29:52.461Z,11.41
2023-01-08T20:32:21.019Z,11.38
2023-01-08T20:34:48.704Z,11.31
2023-01-08T20:37:15.489Z,11.27
2023-01-08T20:39:42.274Z,11.16
2023-01-08T20:42:10.093Z,11.14
2023-01-08T20:44:36.745Z,11.20
2023-01-08T20:47:03.786Z,11.19
2023-01-08T20:49:30.521Z,11.22
2023-01-08T20:51:59.894Z,11.16
2023-01-08T20:54:27.845Z,11.10
2023-01-08T20:56:55.829Z,11.10
2023-01-08T20:59:24.117Z,11.01
2023-01-08T21:01:51.003Z,10.95
2023-01-08T21:04:19.413Z,10.94
2023-01-08T21:06:46.384Z,10.95
2023-01-08T21:09:16.255Z,10.92
2023-01-08T21:11:43.013Z,10.91
2023-01-08T21:14:11.134Z,10.95
2023-01-08T21:16:39.708Z,11.00
2023-01-08T21:19:06.788Z,11.07
2023-01-08T21:21:40.150Z,11.25
2023-01-08T21:24:09.200Z,11.41
2023-01-08T21:26:39.065Z,11.37
2023-01-08T21:29:09.180Z,11.31
2023-01-08T21:31:36.181Z,11.21
2023-01-08T21:34:06.575Z,11.14
2023-01-08T21:36:33.482Z,11.18
2023-01-08T21:39:01.340Z,11.16
2023-01-08T21:41:47.741Z,11.21
2023-01-08T21:44:44.746Z,11.31
2023-01-08T21:47:17.970Z,11.28
2023-01-08T21:49:45.819Z,11.27
2023-01-08T21:52:31.300Z,11.17
2023-01-08T21:54:58.402Z,11.14
2023-01-08T21:57:27.819Z,11.14
2023-01-08T21:59:55.121Z,11.11
2023-01-08T22:02:23.254Z,11.05
2023-01-08T22:04:50.184Z,10.94
2023-01-08T22:07:19.634Z,10.92
2023-01-08T22:09:46.328Z,10.91
2023-01-08T22:12:14.164Z,10.88
2023-01-08T22:14:40.678Z,10.85
2023-01-08T22:17:08.552Z,10.86
2023-01-08T22:19:37.341Z,10.80
2023-01-08T22:22:04.577Z,10.77
2023-01-08T22:24:35.040Z,10.80
2023-01-08T22:27:01.634Z,10.90
2023-01-08T22:29:28.234Z,10.97
2023-01-08T22:31:55.062Z,11.01
2023-01-08T22:34:21.735Z,11.09
2023-01-08T22:36:53.159Z,11.20
2023-01-08T22:39:29.112Z,11.24
2023-01-08T22:42:01.036Z,11.04
2023-01-08T22:47:20.565Z,10.82
2023-01-08T22:49:50.858Z,10.59
2023-01-08T22:52:21.967Z,10.50
2023-01-08T22:54:55.711Z,10.43
2023-01-08T22:57:23.355Z,10.54
2023-01-08T22:59:54.097Z,10.67
2023-01-08T23:02:25.870Z,10.77
2023-01-08T23:04:55.160Z,10.76
2023-01-08T23:07:26.236Z,10.79
2023-01-08T23:10:05.129Z,10.87
2023-01-08T23:12:44.963Z,10.92
2023-01-08T23:15:15.654Z,10.98
2023-01-08T23:17:52.158Z,10.98
2023-01-08T23:20:27.206Z,10.91
2023-01-08T23:23:05.705Z,10.86
2023-01-08T23:25:41.853Z,10.84
2023-01-08T23:28:12.444Z,10.80
2023-01-08T23:30:47.186Z,10.77
2023-01-08T23:33:14.891Z,10.73
2023-01-08T23:35:50.530Z,10.67
2023-01-08T23:38:31.761Z,10.61
2023-01-08T23:41:17.768Z,10.59
2023-01-08T23:44:11.314Z,10.44
2023-01-08T23:46:45.792Z,10.36
2023-01-08T23:49:20.180Z,10.45
2023-01-08T23:51:51.073Z,10.52
2023-01-08T23:54:49.265Z,10.49
2023-01-08T23:57:31.320Z,10.52
2023-01-08T23:59:59.625Z,10.59
